createdAt,value
2019-01-16T00:01:33.684Z,5.03
2019-01-16T00:04:13.900Z,4.67
2019-01-16T00:07:07.722Z,4.07
2019-01-16T00:09:46.547Z,5.13
2019-01-16T00:12:34.914Z,4.33
2019-01-16T00:15:34.862Z,3.80
2019-01-16T00:18:29.427Z,8.13
2019-01-16T00:21:26.751Z,2.37
2019-01-16T00:24:33.473Z,7.23
2019-01-16T00:27:31.325Z,11.40
2019-01-16T00:30:19.680Z,4.07
2019-01-16T00:33:10.830Z,3.07
2019-01-16T00:35:52.683Z,6.53
2019-01-16T00:38:30.285Z,5.60
2019-01-16T00:41:07.931Z,6.70
2019-01-16T00:43:59.124Z,4.23
2019-01-16T00:46:50.307Z,6.43
2019-01-16T00:49:44.286Z,6.93
2019-01-16T00:52:35.403Z,4.67
2019-01-16T00:55:23.975Z,3.50
2019-01-16T00:58:11.163Z,8.10
2019-01-16T01:01:13.121Z,8.13
2019-01-16T01:04:01.514Z,4.53
2019-01-16T01:06:50.441Z,6.67
2019-01-16T01:09:46.871Z,5.80
2019-01-16T01:12:37.766Z,8.83
2019-01-16T01:15:30.226Z,8.60
2019-01-16T01:18:08.049Z,7.00
2019-01-16T01:20:59.197Z,6.17
2019-01-16T01:23:36.661Z,5.93
2019-01-16T01:26:29.895Z,6.50
2019-01-16T01:29:24.312Z,10.77
2019-01-16T01:32:13.136Z,9.10
2019-01-16T01:34:51.367Z,6.70
2019-01-16T01:37:39.589Z,6.80
2019-01-16T01:40:31.851Z,12.98
2019-01-16T01:43:10.551Z,9.40
2019-01-16T01:46:01.990Z,7.60
2019-01-16T01:48:56.153Z,10.17
2019-01-16T01:51:47.052Z,5.33
2019-01-16T01:54:31.724Z,5.60
2019-01-16T01:57:19.723Z,6.43
2019-01-16T02:00:11.940Z,5.10
2019-01-16T02:02:53.302Z,6.00
2019-01-16T02:05:36.174Z,6.93
2019-01-16T02:08:21.650Z,8.33
2019-01-16T02:11:08.626Z,7.20
2019-01-16T02:13:59.583Z,6.80
2019-01-16T02:16:47.898Z,9.17
2019-01-16T02:19:38.984Z,11.53
2019-01-16T02:22:32.970Z,15.10
2019-01-16T02:25:18.066Z,16.30
2019-01-16T02:28:21.264Z,13.37
2019-01-16T02:31:15.363Z,15.13
2019-01-16T02:34:03.713Z,18.87
2019-01-16T02:36:38.966Z,15.70
2019-01-16T02:39:16.687Z,11.90
2019-01-16T02:41:58.767Z,13.17
2019-01-16T02:44:45.730Z,14.90
2019-01-16T02:47:40.005Z,12.17
2019-01-16T02:50:39.964Z,17.17
2019-01-16T02:53:31.692Z,14.47
2019-01-16T02:56:24.867Z,15.33
2019-01-16T02:59:08.977Z,14.50
2019-01-16T03:01:56.167Z,15.83
2019-01-16T03:04:59.401Z,16.50
2019-01-16T03:07:38.879Z,14.80
2019-01-16T03:10:30.265Z,12.63
2019-01-16T03:13:30.331Z,13.67
2019-01-16T03:16:17.101Z,13.43
2019-01-16T03:19:08.021Z,13.07
2019-01-16T03:21:55.079Z,16.70
2019-01-16T03:24:40.911Z,14.90
2019-01-16T03:27:32.293Z,14.63
2019-01-16T03:30:20.420Z,17.37
2019-01-16T03:33:00.447Z,16.13
2019-01-16T03:35:42.213Z,16.67
2019-01-16T03:38:39.647Z,12.33
2019-01-16T03:41:30.887Z,17.60
2019-01-16T03:44:23.554Z,18.23
2019-01-16T03:47:18.096Z,16.83
2019-01-16T03:50:05.665Z,15.83
2019-01-16T03:52:47.494Z,14.27
2019-01-16T03:55:41.648Z,14.13
2019-01-16T03:58:32.558Z,16.77
2019-01-16T04:01:23.872Z,14.30
2019-01-16T04:04:24.178Z,15.50
2019-01-16T04:07:03.838Z,15.40
2019-01-16T04:10:10.539Z,13.57
2019-01-16T04:13:35.935Z,14.50
2019-01-16T04:16:30.162Z,17.10
2019-01-16T04:19:33.783Z,16.30
2019-01-16T04:22:21.010Z,14.30
2019-01-16T04:25:21.269Z,14.27
2019-01-16T04:28:08.050Z,15.80
2019-01-16T04:31:03.896Z,14.73
2019-01-16T04:33:49.898Z,17.17
2019-01-16T04:36:38.961Z,15.00
2019-01-16T04:39:27.820Z,15.27
2019-01-16T04:42:07.247Z,14.93
2019-01-16T04:44:54.020Z,14.93
2019-01-16T04:47:41.483Z,17.63
2019-01-16T04:50:25.153Z,16.33
2019-01-16T04:53:19.295Z,18.17
2019-01-16T04:56:07.416Z,16.97
2019-01-16T04:58:51.799Z,17.97
2019-01-16T05:01:38.950Z,15.17
2019-01-16T05:04:23.917Z,12.67
2019-01-16T05:07:09.489Z,12.13
2019-01-16T05:10:00.687Z,11.10
2019-01-16T05:12:43.492Z,10.80
2019-01-16T05:15:23.239Z,11.63
2019-01-16T05:18:05.449Z,11.33
2019-01-16T05:20:59.619Z,12.47
2019-01-16T05:23:49.757Z,15.13
2019-01-16T05:26:36.895Z,10.27
2019-01-16T05:29:27.657Z,12.10
2019-01-16T05:32:18.859Z,13.33
2019-01-16T05:35:06.925Z,10.97
2019-01-16T05:37:54.011Z,10.60
2019-01-16T05:40:40.908Z,11.87
2019-01-16T05:43:20.261Z,15.13
2019-01-16T05:46:09.850Z,15.03
2019-01-16T05:48:58.179Z,13.17
2019-01-16T05:51:38.253Z,17.37
2019-01-16T05:54:35.767Z,13.83
2019-01-16T05:57:24.022Z,15.90
2019-01-16T06:00:12.278Z,12.53
2019-01-16T06:03:03.279Z,15.07
2019-01-16T06:06:00.553Z,14.97
2019-01-16T06:08:47.320Z,15.13
2019-01-16T06:11:35.542Z,11.33
2019-01-16T06:14:23.630Z,13.23
2019-01-16T06:17:13.212Z,11.57
2019-01-16T06:20:04.167Z,10.80
2019-01-16T06:22:45.906Z,11.03
2019-01-16T06:25:37.139Z,10.30
2019-01-16T06:28:24.042Z,9.70
2019-01-16T06:31:16.700Z,12.00
2019-01-16T06:33:55.409Z,11.87
2019-01-16T06:36:40.551Z,10.33
2019-01-16T06:39:27.906Z,13.27
2019-01-16T06:42:07.860Z,9.17
2019-01-16T06:44:55.070Z,12.50
2019-01-16T06:47:42.027Z,14.93
2019-01-16T06:50:29.110Z,10.87
2019-01-16T06:53:07.127Z,11.57
2019-01-16T06:55:44.411Z,11.80
2019-01-16T06:58:37.007Z,15.73
2019-01-16T07:01:23.440Z,8.07
2019-01-16T07:04:23.623Z,8.80
2019-01-16T07:07:14.736Z,12.67
2019-01-16T07:10:00.651Z,10.50
2019-01-16T07:12:54.967Z,10.53
2019-01-16T07:15:49.264Z,10.03
2019-01-16T07:18:46.914Z,7.60
2019-01-16T07:21:37.639Z,9.10
2019-01-16T07:24:32.135Z,9.03
2019-01-16T07:27:19.101Z,9.37
2019-01-16T07:29:57.126Z,8.60
2019-01-16T07:32:43.407Z,11.53
2019-01-16T07:35:31.778Z,8.30
2019-01-16T07:38:16.344Z,9.33
2019-01-16T07:41:10.515Z,6.07
2019-01-16T07:43:58.059Z,9.97
2019-01-16T07:46:46.483Z,10.33
2019-01-16T07:49:33.834Z,9.07
2019-01-16T07:52:15.092Z,9.73
2019-01-16T07:55:06.257Z,8.17
2019-01-16T07:58:09.390Z,6.83
2019-01-16T08:01:09.754Z,7.97
2019-01-16T08:04:05.782Z,10.33
2019-01-16T08:07:01.092Z,8.70
2019-01-16T08:09:48.184Z,8.83
2019-01-16T08:12:54.659Z,8.77
2019-01-16T08:15:41.356Z,10.23
2019-01-16T08:18:18.686Z,8.97
2019-01-16T08:21:14.262Z,7.97
2019-01-16T08:24:00.084Z,5.73
2019-01-16T08:26:51.366Z,9.80
2019-01-16T08:29:45.400Z,7.65
2019-01-16T08:32:42.804Z,10.10
2019-01-16T08:35:26.440Z,7.93
2019-01-16T08:38:13.568Z,9.90
2019-01-16T08:41:00.580Z,7.93
2019-01-16T08:43:55.164Z,6.83
2019-01-16T08:46:44.976Z,8.03
2019-01-16T08:49:42.506Z,9.70
2019-01-16T08:52:19.206Z,9.30
2019-01-16T08:55:07.317Z,9.73
2019-01-16T08:58:01.940Z,9.30
2019-01-16T09:00:48.962Z,7.77
2019-01-16T09:03:42.981Z,10.33
2019-01-16T09:06:40.051Z,8.30
2019-01-16T09:09:29.118Z,7.80
2019-01-16T09:12:23.416Z,6.73
2019-01-16T09:15:14.316Z,8.63
2019-01-16T09:17:57.229Z,7.90
2019-01-16T09:21:03.689Z,8.07
2019-01-16T09:23:50.515Z,10.83
2019-01-16T09:26:47.397Z,8.60
2019-01-16T09:29:39.286Z,8.03
2019-01-16T09:32:25.754Z,10.07
2019-01-16T09:35:12.723Z,10.40
2019-01-16T09:38:10.008Z,8.87
2019-01-16T09:40:49.647Z,9.20
2019-01-16T09:43:55.883Z,7.13
2019-01-16T09:47:00.707Z,11.23
2019-01-16T09:49:54.626Z,10.37
2019-01-16T09:52:34.231Z,10.20
2019-01-16T09:55:35.143Z,9.67
2019-01-16T09:58:30.633Z,6.83
2019-01-16T10:01:21.892Z,10.37
2019-01-16T10:04:03.732Z,10.80
2019-01-16T10:06:43.034Z,8.23
2019-01-16T10:09:30.101Z,10.10
2019-01-16T10:12:13.321Z,7.27
2019-01-16T10:14:52.724Z,13.43
2019-01-16T10:17:59.072Z,9.53
2019-01-16T10:20:55.801Z,11.80
2019-01-16T10:23:41.770Z,8.50
2019-01-16T10:26:30.081Z,8.90
2019-01-16T10:29:21.562Z,13.30
2019-01-16T10:32:06.323Z,9.23
2019-01-16T10:35:12.426Z,9.27
2019-01-16T10:38:03.479Z,10.50
2019-01-16T10:40:57.620Z,9.13
2019-01-16T10:43:45.123Z,8.83
2019-01-16T10:46:33.300Z,11.30
2019-01-16T10:49:13.010Z,12.53
2019-01-16T10:51:58.414Z,11.30
2019-01-16T10:54:37.029Z,10.93
2019-01-16T10:57:24.051Z,9.00
2019-01-16T11:00:12.482Z,11.13
2019-01-16T11:02:59.413Z,11.13
2019-01-16T11:05:53.845Z,12.17
2019-01-16T11:08:37.227Z,12.43
2019-01-16T11:11:24.427Z,10.77
2019-01-16T11:14:06.427Z,12.20
2019-01-16T11:17:03.774Z,8.83
2019-01-16T11:19:54.931Z,13.60
2019-01-16T11:22:41.599Z,10.33
2019-01-16T11:25:32.577Z,14.30
2019-01-16T11:28:20.914Z,16.67
2019-01-16T11:31:04.266Z,14.70
2019-01-16T11:33:51.593Z,12.70
2019-01-16T11:36:38.581Z,11.63
2019-01-16T11:39:25.749Z,13.03
2019-01-16T11:42:29.038Z,12.90
2019-01-16T11:45:07.487Z,9.73
2019-01-16T11:48:04.662Z,12.17
2019-01-16T11:50:59.469Z,10.93
2019-01-16T11:53:46.258Z,17.37
2019-01-16T11:56:35.365Z,14.07
2019-01-16T11:59:24.702Z,11.87
2019-01-16T12:02:12.898Z,13.57
2019-01-16T12:05:12.452Z,15.40
2019-01-16T12:08:00.410Z,13.90
2019-01-16T12:10:44.442Z,11.30
2019-01-16T12:13:32.882Z,13.63
2019-01-16T12:16:10.232Z,14.03
2019-01-16T12:18:53.458Z,19.57
2019-01-16T12:21:40.026Z,12.27
2019-01-16T12:24:22.314Z,14.33
2019-01-16T12:27:09.474Z,11.93
2019-01-16T12:30:06.934Z,14.57
2019-01-16T12:33:01.131Z,14.80
2019-01-16T12:35:38.907Z,12.50
2019-01-16T12:38:25.832Z,11.93
2019-01-16T12:41:02.422Z,13.00
2019-01-16T12:43:53.362Z,14.03
2019-01-16T12:46:53.529Z,10.90
2019-01-16T12:49:41.656Z,12.37
2019-01-16T12:52:57.516Z,12.03
2019-01-16T12:55:44.488Z,12.10
2019-01-16T12:58:41.910Z,13.10
2019-01-16T13:01:33.187Z,11.57
2019-01-16T13:04:21.488Z,14.90
2019-01-16T13:07:27.815Z,14.60
2019-01-16T13:10:23.752Z,11.53
2019-01-16T13:13:17.995Z,14.77
2019-01-16T13:16:05.607Z,13.93
2019-01-16T13:19:08.857Z,13.00
2019-01-16T13:21:57.141Z,10.00
2019-01-16T13:24:42.243Z,14.43
2019-01-16T13:27:29.280Z,14.90
2019-01-16T13:30:08.725Z,15.17
2019-01-16T13:33:07.160Z,13.77
2019-01-16T13:35:54.095Z,14.43
2019-01-16T13:38:35.468Z,13.23
2019-01-16T13:41:39.190Z,14.33
2019-01-16T13:44:19.199Z,13.70
2019-01-16T13:47:06.099Z,14.97
2019-01-16T13:50:09.725Z,13.80
2019-01-16T13:52:56.583Z,14.90
2019-01-16T13:55:38.832Z,14.10
2019-01-16T13:58:28.177Z,11.07
2019-01-16T14:01:24.588Z,14.13
2019-01-16T14:04:11.872Z,14.37
2019-01-16T14:07:03.436Z,12.77
2019-01-16T14:10:24.140Z,12.67
2019-01-16T14:13:18.786Z,12.63
2019-01-16T14:15:58.360Z,13.43
2019-01-16T14:18:34.998Z,15.63
2019-01-16T14:21:23.277Z,12.90
2019-01-16T14:24:07.199Z,12.77
2019-01-16T14:27:10.620Z,13.87
2019-01-16T14:29:47.870Z,17.10
2019-01-16T14:32:34.592Z,13.33
2019-01-16T14:35:41.362Z,14.50
2019-01-16T14:38:32.218Z,15.63
2019-01-16T14:41:19.298Z,16.77
2019-01-16T14:44:06.823Z,16.27
2019-01-16T14:46:49.214Z,16.20
2019-01-16T14:49:40.597Z,12.30
2019-01-16T14:52:26.113Z,15.60
2019-01-16T14:55:14.229Z,11.97
2019-01-16T14:58:01.390Z,15.50
2019-01-16T15:00:54.980Z,13.73
2019-01-16T15:03:49.400Z,15.13
2019-01-16T15:06:37.930Z,11.97
2019-01-16T15:09:33.608Z,14.90
2019-01-16T15:12:21.734Z,11.50
2019-01-16T15:15:09.285Z,15.13
2019-01-16T15:17:57.629Z,13.87
2019-01-16T15:20:46.787Z,18.33
2019-01-16T15:23:38.730Z,13.50
2019-01-16T15:26:30.029Z,15.93
2019-01-16T15:29:24.223Z,13.67
2019-01-16T15:32:11.851Z,15.08
2019-01-16T15:35:01.895Z,14.20
2019-01-16T15:37:44.335Z,16.30
2019-01-16T15:40:26.907Z,12.60
2019-01-16T15:43:04.753Z,16.80
2019-01-16T15:46:02.245Z,12.23
2019-01-16T15:48:55.163Z,10.63
2019-01-16T15:51:53.146Z,12.07
2019-01-16T15:54:44.257Z,11.67
2019-01-16T15:57:31.059Z,11.83
2019-01-16T16:00:28.372Z,12.30
2019-01-16T16:03:05.079Z,13.97
2019-01-16T16:05:53.648Z,9.77
2019-01-16T16:08:53.836Z,10.08
2019-01-16T16:11:41.696Z,9.73
2019-01-16T16:14:28.898Z,11.40
2019-01-16T16:17:16.447Z,10.23
2019-01-16T16:20:16.819Z,8.98
2019-01-16T16:23:03.890Z,11.33
2019-01-16T16:26:01.274Z,9.13
2019-01-16T16:29:01.986Z,10.57
2019-01-16T16:31:41.250Z,12.63
2019-01-16T16:34:28.242Z,11.27
2019-01-16T16:37:15.410Z,11.33
2019-01-16T16:40:06.674Z,11.60
2019-01-16T16:42:47.166Z,13.20
2019-01-16T16:45:36.910Z,11.60
2019-01-16T16:48:23.938Z,10.23
2019-01-16T16:51:10.984Z,12.67
2019-01-16T16:53:59.094Z,12.57
2019-01-16T16:56:43.362Z,12.20
2019-01-16T16:59:31.485Z,13.17
2019-01-16T17:02:18.895Z,10.77
2019-01-16T17:05:05.910Z,9.87
2019-01-16T17:07:52.682Z,14.40
2019-01-16T17:10:43.845Z,11.90
2019-01-16T17:13:56.354Z,17.87
2019-01-16T17:16:43.661Z,13.27
2019-01-16T17:19:44.204Z,12.63
2019-01-16T17:22:21.812Z,14.23
2019-01-16T17:25:08.919Z,18.17
2019-01-16T17:28:03.279Z,12.43
2019-01-16T17:30:50.226Z,15.97
2019-01-16T17:33:37.151Z,17.70
2019-01-16T17:36:42.881Z,15.10
2019-01-16T17:39:30.225Z,14.40
2019-01-16T17:42:27.487Z,16.50
2019-01-16T17:45:11.907Z,15.87
2019-01-16T17:47:57.285Z,16.70
2019-01-16T17:50:44.241Z,15.50
2019-01-16T17:53:47.855Z,17.00
2019-01-16T17:56:45.264Z,13.07
2019-01-16T17:59:32.191Z,13.93
2019-01-16T18:02:21.470Z,16.50
2019-01-16T18:05:21.892Z,16.60
2019-01-16T18:08:12.093Z,12.93
2019-01-16T18:11:03.143Z,13.13
2019-01-16T18:13:49.898Z,15.67
2019-01-16T18:16:56.782Z,15.57
2019-01-16T18:19:49.182Z,14.63
2019-01-16T18:22:34.323Z,12.53
2019-01-16T18:25:17.634Z,12.63
2019-01-16T18:28:05.796Z,16.00
2019-01-16T18:30:54.126Z,15.47
2019-01-16T18:33:41.130Z,15.87
2019-01-16T18:36:35.412Z,16.97
2019-01-16T18:39:26.933Z,15.57
2019-01-16T18:42:21.228Z,19.17
2019-01-16T18:44:59.305Z,15.90
2019-01-16T18:47:46.145Z,17.87
2019-01-16T18:50:33.080Z,15.97
2019-01-16T18:53:19.719Z,15.87
2019-01-16T18:56:13.325Z,15.27
2019-01-16T18:59:00.464Z,18.40
2019-01-16T19:01:48.849Z,14.77
2019-01-16T19:04:48.334Z,15.47
2019-01-16T19:07:35.503Z,15.20
2019-01-16T19:10:24.403Z,18.57
2019-01-16T19:13:30.849Z,15.03
2019-01-16T19:16:28.085Z,15.33
2019-01-16T19:19:09.697Z,18.67
2019-01-16T19:22:00.842Z,16.23
2019-01-16T19:24:52.335Z,19.10
2019-01-16T19:27:47.239Z,16.10
2019-01-16T19:30:27.785Z,16.40
2019-01-16T19:33:07.161Z,15.87
2019-01-16T19:35:58.857Z,17.50
2019-01-16T19:38:53.053Z,16.77
2019-01-16T19:41:40.366Z,18.80
2019-01-16T19:44:27.255Z,19.67
2019-01-16T19:47:18.993Z,16.57
2019-01-16T19:50:06.131Z,15.20
2019-01-16T19:52:52.611Z,15.73
2019-01-16T19:55:46.763Z,19.97
2019-01-16T19:58:37.605Z,17.43
2019-01-16T20:01:27.824Z,20.20
2019-01-16T20:04:19.618Z,17.30
2019-01-16T20:07:00.603Z,16.00
2019-01-16T20:09:44.857Z,15.07
2019-01-16T20:12:20.456Z,15.10
2019-01-16T20:15:07.613Z,19.37
2019-01-16T20:17:57.611Z,16.53
2019-01-16T20:20:52.082Z,14.67
2019-01-16T20:23:55.560Z,14.10
2019-01-16T20:26:51.007Z,15.43
2019-01-16T20:29:37.714Z,13.37
2019-01-16T20:32:23.572Z,14.47
2019-01-16T20:35:09.646Z,12.63
2019-01-16T20:37:52.717Z,14.00
2019-01-16T20:40:41.710Z,14.20
2019-01-16T20:43:28.490Z,13.90
2019-01-16T20:46:15.480Z,15.07
2019-01-16T20:49:15.840Z,17.17
2019-01-16T20:52:02.988Z,15.37
2019-01-16T20:54:54.362Z,15.77
2019-01-16T20:57:42.500Z,16.60
2019-01-16T21:00:34.778Z,18.48
2019-01-16T21:03:28.828Z,16.50
2019-01-16T21:06:27.312Z,18.13
2019-01-16T21:09:13.874Z,18.07
2019-01-16T21:12:02.366Z,15.13
2019-01-16T21:14:46.029Z,15.17
2019-01-16T21:17:25.871Z,15.73
2019-01-16T21:20:16.762Z,11.93
2019-01-16T21:22:59.670Z,9.83
2019-01-16T21:26:01.915Z,9.43
2019-01-16T21:28:44.155Z,11.20
2019-01-16T21:31:28.766Z,5.73
2019-01-16T21:34:21.878Z,2.30
2019-01-16T21:37:09.097Z,3.73
2019-01-16T21:40:00.851Z,2.50
2019-01-16T21:42:52.881Z,5.37
2019-01-16T21:45:39.981Z,3.97
2019-01-16T21:48:29.758Z,4.03
2019-01-16T21:51:24.235Z,4.67
2019-01-16T21:54:02.997Z,3.90
2019-01-16T21:57:01.757Z,2.73
2019-01-16T21:59:48.666Z,4.00
2019-01-16T22:02:32.601Z,4.37
2019-01-16T22:05:12.996Z,2.97
2019-01-16T22:07:49.845Z,5.23
2019-01-16T22:10:36.568Z,6.47
2019-01-16T22:13:34.027Z,4.33
2019-01-16T22:16:22.153Z,2.50
2019-01-16T22:19:04.204Z,5.13
2019-01-16T22:21:57.596Z,4.40
2019-01-16T22:24:40.485Z,4.43
2019-01-16T22:27:28.683Z,2.73
2019-01-16T22:30:23.076Z,1.67
2019-01-16T22:33:10.570Z,4.47
2019-01-16T22:36:01.521Z,5.53
2019-01-16T22:38:58.987Z,8.43
2019-01-16T22:41:47.410Z,7.07
2019-01-16T22:44:47.854Z,1.77
2019-01-16T22:47:36.166Z,4.50
2019-01-16T22:50:23.724Z,2.80
2019-01-16T22:53:19.952Z,2.33
2019-01-16T22:56:07.281Z,6.60
2019-01-16T22:59:08.726Z,4.17
2019-01-16T23:01:55.712Z,2.43
2019-01-16T23:04:41.928Z,3.27
2019-01-16T23:07:18.900Z,5.17
2019-01-16T23:09:59.271Z,6.17
2019-01-16T23:13:01.255Z,3.50
2019-01-16T23:16:04.749Z,5.70
2019-01-16T23:18:41.948Z,3.80
2019-01-16T23:21:28.739Z,4.03
2019-01-16T23:24:16.855Z,3.60
2019-01-16T23:26:52.939Z,4.43
2019-01-16T23:29:50.451Z,6.40
2019-01-16T23:32:42.435Z,5.27
2019-01-16T23:35:42.857Z,3.23
2019-01-16T23:38:49.381Z,4.87
2019-01-16T23:41:36.297Z,2.60
2019-01-16T23:44:24.588Z,2.93
2019-01-16T23:47:11.629Z,1.10
2019-01-16T23:50:12.163Z,3.20
2019-01-16T23:53:18.392Z,4.13
2019-01-16T23:56:04.506Z,6.30
2019-01-16T23:58:52.637Z,1.63
